Big Sky, Montana
Current Conditions -  °F | °C
As of 5:56 PM on Monday 20 Oct 2014 (Local Time) from KBZN Reporting Station
Clear Clear  
Wind Chill: 72°   Ceiling: Unl
Heat Index: 72°   Visibility: 10mi
Dew Point: 34°   Wind: 10mph
Humidity: 25%   Direction: 220°SW
Pressure: 29.84"   Gusts: NA
Location:  45.29°N, 111.3°W
Report Text: KBZN 202356Z 22009KT 10SM CLR 22/01 A2984 RMK AO2 SLP088 T02220011 10250 20144 56013
Loading
Personal Weather Stations






























Interactive Weather Map
Tropical Storm Tracking
New forecast layout! Learn more

10-Day Weather Forecast

Advertisements
Track Severe Weather on mobile